Time;durP1;ratioP1;P1;durP2;ratioP2;P2;SDS_P1;SDS_P2;PMS_P1;PMS_P2;Temp;Humidity;BMP_temperature;BMP_pressure;BME280_temperature;BME280_humidity;BME280_pressure;Samples;Min_cycle;Max_cycle;Signal;HPM_P1;HPM_P2
2021/01/24 00:02:23;;;;;;;6.77;6.30;;;4.80;99.90;;;;;;10369876;28;20231;-80
2021/01/24 00:13:16;;;;;;;6.57;6.17;;;4.90;99.90;;;;;;10366938;28;20242;-80
2021/01/24 00:18:21;;;;;;;5.47;5.17;;;4.90;99.90;;;;;;10384077;28;20199;-81
2021/01/24 00:23:23;;;;;;;5.80;5.50;;;4.90;99.90;;;;;;10376992;28;20218;-83
2021/01/24 00:28:42;;;;;;;4.63;4.43;;;4.80;99.90;;;;;;10400043;28;20241;-80
2021/01/24 00:33:53;;;;;;;5.17;4.97;;;4.80;99.90;;;;;;10388631;28;20709;-83
2021/01/24 00:39:07;;;;;;;4.53;4.33;;;4.70;99.90;;;;;;10373462;28;20246;-82
2021/01/24 00:44:11;;;;;;;4.90;4.60;;;4.70;99.90;;;;;;10371327;28;20300;-82
2021/01/24 00:49:14;;;;;;;4.77;4.57;;;4.80;99.90;;;;;;10369778;28;20245;-82
2021/01/24 00:54:18;;;;;;;5.00;4.80;;;4.80;99.90;;;;;;10364205;28;20215;-80
2021/01/24 00:59:22;;;;;;;4.60;4.40;;;4.80;99.90;;;;;;10381182;28;20264;-82
2021/01/24 01:04:41;;;;;;;4.37;4.17;;;4.70;99.90;;;;;;10385718;28;20210;-82
2021/01/24 01:09:43;;;;;;;4.27;4.07;;;4.70;99.90;;;;;;10366843;28;20741;-83
2021/01/24 01:14:44;;;;;;;4.30;4.10;;;4.70;99.90;;;;;;10372769;28;20222;-83
2021/01/24 01:19:47;;;;;;;4.00;3.80;;;4.70;99.90;;;;;;10351524;28;20207;-82
2021/01/24 01:24:48;;;;;;;3.50;3.30;;;4.60;99.90;;;;;;10376406;28;20254;-82
2021/01/24 01:29:50;;;;;;;3.57;3.47;;;4.60;99.90;;;;;;10364648;28;20214;-81
2021/01/24 01:34:53;;;;;;;3.90;3.70;;;4.60;99.90;;;;;;10351408;28;20425;-82
2021/01/24 01:39:55;;;;;;;3.37;3.27;;;4.50;99.90;;;;;;10345374;28;20202;-81
2021/01/24 01:44:56;;;;;;;3.63;3.50;;;4.50;99.90;;;;;;10344991;28;20586;-81
2021/01/24 01:50:00;;;;;;;3.53;3.33;;;4.50;99.90;;;;;;10344309;28;20229;-81
2021/01/24 01:55:03;;;;;;;3.50;3.40;;;4.40;99.90;;;;;;10344993;28;20226;-81
2021/01/24 02:00:06;;;;;;;3.80;3.60;;;4.30;99.90;;;;;;10340288;28;20205;-82
2021/01/24 02:05:22;;;;;;;3.43;3.27;;;4.40;99.90;;;;;;10356808;28;20706;-82
2021/01/24 02:10:34;;;;;;;3.57;3.37;;;4.40;99.90;;;;;;10361009;28;20621;-81
2021/01/24 02:15:37;;;;;;;2.80;2.70;;;4.40;99.90;;;;;;10361297;28;20240;-82
2021/01/24 02:20:47;;;;;;;2.30;2.30;;;4.30;99.90;;;;;;10344677;28;20224;-82
2021/01/24 02:25:55;;;;;;;2.10;2.00;;;4.20;99.90;;;;;;10363083;28;20222;-82
2021/01/24 02:30:58;;;;;;;2.27;2.17;;;4.20;99.90;;;;;;10363993;28;20286;-82
2021/01/24 02:36:01;;;;;;;1.90;1.90;;;4.20;99.90;;;;;;10370144;28;20706;-82
2021/01/24 02:41:06;;;;;;;1.50;1.50;;;4.30;99.90;;;;;;10349744;28;20206;-82
2021/01/24 02:46:09;;;;;;;1.70;1.70;;;4.40;99.90;;;;;;10368583;28;20246;-81
2021/01/24 02:51:12;;;;;;;1.90;1.90;;;4.40;99.90;;;;;;10352274;28;20257;-82
2021/01/24 02:56:17;;;;;;;1.60;1.53;;;4.40;99.90;;;;;;10351946;28;20222;-81
2021/01/24 03:01:20;;;;;;;1.57;1.47;;;4.40;99.90;;;;;;10352948;28;20199;-80
2021/01/24 03:06:22;;;;;;;1.50;1.50;;;4.50;99.90;;;;;;10352593;28;20234;-82
2021/01/24 03:11:24;;;;;;;1.50;1.50;;;4.50;99.90;;;;;;10369689;28;20297;-82
2021/01/24 03:16:27;;;;;;;1.87;1.77;;;4.40;99.90;;;;;;10352785;28;20281;-82
2021/01/24 03:21:31;;;;;;;2.43;2.23;;;4.30;99.90;;;;;;10352368;28;20533;-82
2021/01/24 03:26:33;;;;;;;2.23;2.13;;;4.30;99.90;;;;;;10368179;28;20249;-82
2021/01/24 03:31:36;;;;;;;2.50;2.40;;;4.30;99.90;;;;;;10353506;28;20236;-81
2021/01/24 03:36:37;;;;;;;2.27;2.17;;;4.40;99.90;;;;;;10354927;28;20202;-82
2021/01/24 03:41:39;;;;;;;2.60;2.50;;;4.40;99.90;;;;;;10382166;28;20206;-82
2021/01/24 03:46:42;;;;;;;2.47;2.27;;;4.40;99.90;;;;;;10362372;28;20326;-82
2021/01/24 03:51:44;;;;;;;2.90;2.80;;;4.30;99.90;;;;;;10375983;28;20225;-82
2021/01/24 03:56:45;;;;;;;3.30;3.10;;;4.30;99.90;;;;;;10375119;28;20678;-82
2021/01/24 04:01:48;;;;;;;3.17;2.97;;;4.20;99.90;;;;;;10384872;28;20549;-83
2021/01/24 04:06:49;;;;;;;3.33;3.13;;;4.20;99.90;;;;;;10349984;28;20257;-82
2021/01/24 04:11:51;;;;;;;3.20;3.00;;;4.10;99.90;;;;;;10351412;28;20284;-82
2021/01/24 04:16:53;;;;;;;3.10;2.90;;;4.20;99.90;;;;;;10363565;28;20205;-81
2021/01/24 04:21:55;;;;;;;3.53;3.33;;;4.30;99.90;;;;;;10367055;28;20266;-82
2021/01/24 04:26:57;;;;;;;3.23;3.03;;;4.40;99.90;;;;;;10347512;28;20627;-82
2021/01/24 04:31:59;;;;;;;3.30;3.10;;;4.40;99.90;;;;;;10363288;28;20230;-79
2021/01/24 04:37:01;;;;;;;3.23;3.03;;;4.30;99.90;;;;;;10368145;28;20191;-82
2021/01/24 04:42:03;;;;;;;3.40;3.17;;;4.10;99.90;;;;;;10367711;28;20215;-83
2021/01/24 04:47:07;;;;;;;3.30;3.10;;;4.10;99.90;;;;;;10354455;28;20202;-81
2021/01/24 04:52:09;;;;;;;3.00;2.80;;;4.00;99.90;;;;;;10363149;28;20230;-80
2021/01/24 04:57:11;;;;;;;2.87;2.67;;;3.90;99.90;;;;;;10363661;28;20195;-82
2021/01/24 05:02:15;;;;;;;3.93;3.53;;;3.90;99.90;;;;;;10347726;28;20214;-79
2021/01/24 05:07:17;;;;;;;2.40;2.30;;;3.90;99.90;;;;;;10378945;28;20229;-82
2021/01/24 05:12:20;;;;;;;2.83;2.63;;;3.90;99.00;;;;;;10387201;23;20284;-78
2021/01/24 05:17:22;;;;;;;2.70;2.50;;;3.90;99.60;;;;;;10355241;28;20191;-78
2021/01/24 05:22:24;;;;;;;2.80;2.60;;;3.90;99.10;;;;;;10373880;28;20187;-79
2021/01/24 05:27:26;;;;;;;2.93;2.83;;;4.00;98.60;;;;;;10373012;28;20265;-78
2021/01/24 05:32:41;;;;;;;3.60;3.20;;;3.80;98.30;;;;;;10371840;28;20214;-78
2021/01/24 05:37:46;;;;;;;3.93;3.63;;;3.70;99.40;;;;;;10371947;28;20191;-77
2021/01/24 05:42:48;;;;;;;3.30;3.00;;;3.60;99.90;;;;;;10371796;28;20248;-77
2021/01/24 05:47:52;;;;;;;3.47;3.27;;;3.70;99.90;;;;;;10353657;28;20215;-77
2021/01/24 05:52:54;;;;;;;3.83;3.53;;;3.70;99.90;;;;;;10353214;28;20640;-77
2021/01/24 05:57:55;;;;;;;3.83;3.43;;;3.70;99.90;;;;;;10354414;28;20273;-77
2021/01/24 06:02:58;;;;;;;3.60;3.30;;;3.70;99.90;;;;;;10353408;28;20309;-79
2021/01/24 06:07:59;;;;;;;3.40;3.20;;;3.80;99.90;;;;;;10371238;28;20244;-78
2021/01/24 06:13:02;;;;;;;3.53;3.33;;;3.90;99.90;;;;;;10370897;28;20228;-79
2021/01/24 06:18:13;;;;;;;3.93;3.63;;;3.90;98.10;;;;;;10370688;28;20282;-78
2021/01/24 06:23:22;;;;;;;3.93;3.63;;;3.70;98.80;;;;;;10353238;28;20744;-77
2021/01/24 06:28:28;;;;;;;4.30;3.63;;;3.50;98.90;;;;;;10336591;28;20222;-77
2021/01/24 06:33:31;;;;;;;4.90;4.40;;;3.50;99.70;;;;;;10368487;28;20733;-77
2021/01/24 06:38:34;;;;;;;4.10;3.80;;;3.50;99.30;;;;;;10349422;28;20765;-78
2021/01/24 06:43:41;;;;;;;4.63;4.33;;;3.60;99.40;;;;;;10346855;28;20228;-80
2021/01/24 06:48:45;;;;;;;6.50;4.47;;;3.60;99.90;;;;;;10352188;28;20679;-78
2021/01/24 06:53:47;;;;;;;4.57;3.50;;;3.50;99.80;;;;;;10352647;28;20276;-78
2021/01/24 06:58:50;;;;;;;3.90;3.60;;;3.40;99.90;;;;;;10347869;28;20655;-78
2021/01/24 07:04:29;;;;;;;3.77;3.57;;;3.40;99.90;;;;;;10368635;28;20218;-79
2021/01/24 07:09:42;;;;;;;3.67;3.37;;;3.40;98.80;;;;;;10347450;28;20694;-79
2021/01/24 07:14:45;;;;;;;4.40;3.73;;;3.40;99.50;;;;;;10366364;28;20219;-78
2021/01/24 07:19:49;;;;;;;3.60;3.30;;;3.50;98.30;;;;;;10351906;28;20221;-79
2021/01/24 07:24:53;;;;;;;4.63;4.23;;;3.40;98.20;;;;;;10335693;28;20246;-77
2021/01/24 07:29:54;;;;;;;4.00;3.70;;;3.40;98.70;;;;;;10376811;28;20225;-78
2021/01/24 07:34:56;;;;;;;3.87;3.57;;;3.40;99.20;;;;;;10341938;28;20260;-79
2021/01/24 07:39:59;;;;;;;3.67;3.37;;;3.40;99.10;;;;;;10359009;28;20203;-78
2021/01/24 07:45:01;;;;;;;3.83;3.50;;;3.30;99.40;;;;;;10375644;28;20260;-79
2021/01/24 07:50:03;;;;;;;3.67;3.37;;;3.30;98.70;;;;;;10369240;28;20218;-77
2021/01/24 07:55:09;;;;;;;3.43;3.23;;;3.40;98.20;;;;;;10375081;28;20312;-78
2021/01/24 08:00:13;;;;;;;3.47;3.20;;;3.30;98.10;;;;;;10351771;28;20241;-78
2021/01/24 08:05:15;;;;;;;3.57;2.97;;;3.30;97.70;;;;;;10353016;28;20242;-78
2021/01/24 08:10:18;;;;;;;4.17;3.10;;;3.30;98.40;;;;;;10356349;28;20586;-78
2021/01/24 08:15:19;;;;;;;3.37;3.17;;;3.50;97.10;;;;;;10374155;28;20246;-78
2021/01/24 08:20:23;;;;;;;3.20;3.00;;;3.50;96.90;;;;;;10374678;28;20221;-79
2021/01/24 08:25:25;;;;;;;3.13;2.83;;;3.50;97.20;;;;;;10373444;28;20289;-78
2021/01/24 08:30:28;;;;;;;3.10;2.77;;;3.50;96.50;;;;;;10374082;28;20237;-77
2021/01/24 08:35:32;;;;;;;3.87;2.90;;;3.50;97.00;;;;;;10355874;28;20301;-77
2021/01/24 08:40:36;;;;;;;3.40;2.57;;;3.40;97.00;;;;;;10362676;28;20198;-80
2021/01/24 08:45:38;;;;;;;3.07;2.87;;;3.50;96.90;;;;;;10341044;28;20226;-80
2021/01/24 08:50:39;;;;;;;3.97;3.53;;;3.50;96.10;;;;;;10357325;28;20313;-80
2021/01/24 08:55:49;;;;;;;3.17;2.97;;;3.60;96.60;;;;;;10357069;28;20313;-80
2021/01/24 09:01:03;;;;;;;4.17;3.07;;;3.90;97.00;;;;;;10374432;28;20202;-80
2021/01/24 09:06:14;;;;;;;3.63;3.30;;;4.20;97.00;;;;;;10338578;28;20649;-79
2021/01/24 09:11:17;;;;;;;3.20;3.00;;;4.20;97.00;;;;;;10348299;28;20678;-80
2021/01/24 09:16:20;;;;;;;4.50;2.90;;;4.30;96.50;;;;;;10346453;28;20225;-79
2021/01/24 09:21:22;;;;;;;3.17;2.90;;;4.20;95.90;;;;;;10355052;28;20654;-79
2021/01/24 09:26:25;;;;;;;2.90;2.70;;;4.30;95.80;;;;;;10371226;28;20211;-79
2021/01/24 09:31:26;;;;;;;3.13;2.93;;;4.40;96.90;;;;;;10368232;28;20223;-79
2021/01/24 09:36:28;;;;;;;4.50;3.70;;;4.50;97.00;;;;;;10370340;28;20242;-79
2021/01/24 09:41:30;;;;;;;2.93;2.63;;;4.40;97.80;;;;;;10341608;28;20211;-79
2021/01/24 09:46:32;;;;;;;4.80;3.50;;;4.40;99.20;;;;;;10334629;28;20596;-79
2021/01/24 09:51:34;;;;;;;3.90;3.60;;;4.40;99.50;;;;;;10331436;28;20230;-80
2021/01/24 09:56:37;;;;;;;4.90;4.10;;;4.40;99.90;;;;;;10333303;28;20222;-79
2021/01/24 10:01:38;;;;;;;3.50;3.30;;;4.40;99.90;;;;;;10388674;28;20256;-80
2021/01/24 10:06:40;;;;;;;3.67;3.37;;;4.40;99.90;;;;;;10354196;28;20253;-81
2021/01/24 10:11:43;;;;;;;3.50;3.30;;;4.50;99.90;;;;;;10326343;28;20317;-79
2021/01/24 10:16:44;;;;;;;3.80;3.50;;;4.60;99.90;;;;;;10340230;28;20318;-80
2021/01/24 10:21:46;;;;;;;4.13;3.50;;;4.70;99.90;;;;;;10376407;28;20218;-81
2021/01/24 10:26:49;;;;;;;3.37;3.07;;;4.80;99.90;;;;;;10349284;28;20320;-80
2021/01/24 10:31:50;;;;;;;2.90;2.70;;;4.80;99.30;;;;;;10374878;28;20230;-81
2021/01/24 10:36:52;;;;;;;3.13;2.90;;;5.00;98.90;;;;;;10384631;28;20607;-80
2021/01/24 10:41:54;;;;;;;3.40;3.10;;;5.00;97.50;;;;;;10374728;28;20213;-80
2021/01/24 10:46:56;;;;;;;2.67;2.47;;;4.90;97.20;;;;;;10361262;28;20253;-81
2021/01/24 10:51:58;;;;;;;2.27;2.17;;;5.00;96.10;;;;;;10367013;28;20250;-81
2021/01/24 10:57:00;;;;;;;2.77;2.57;;;5.10;94.80;;;;;;10372679;28;20722;-81
2021/01/24 11:02:02;;;;;;;2.00;1.90;;;5.10;93.90;;;;;;10406252;28;20340;-80
2021/01/24 11:07:04;;;;;;;3.10;2.80;;;5.10;94.80;;;;;;10412045;28;20253;-79
2021/01/24 11:12:07;;;;;;;2.60;2.40;;;5.20;93.00;;;;;;10394275;28;20225;-80
2021/01/24 11:17:09;;;;;;;2.40;2.20;;;5.20;94.30;;;;;;10345276;23;20231;-81
2021/01/24 11:22:11;;;;;;;3.13;2.20;;;5.20;93.70;;;;;;10316042;28;20200;-82
2021/01/24 11:27:14;;;;;;;2.40;2.20;;;5.20;92.80;;;;;;10330623;28;20691;-81
2021/01/24 11:32:16;;;;;;;1.97;1.87;;;5.40;92.30;;;;;;10298597;28;20314;-83
2021/01/24 11:37:17;;;;;;;2.10;2.00;;;5.50;90.90;;;;;;10331519;28;20223;-83
2021/01/24 11:42:21;;;;;;;2.63;2.20;;;5.60;91.50;;;;;;10311822;28;20203;-83
2021/01/24 11:47:22;;;;;;;2.43;2.20;;;5.70;91.00;;;;;;10326420;28;20239;-84
2021/01/24 11:52:24;;;;;;;2.60;2.37;;;5.70;92.20;;;;;;10298811;28;20722;-83
2021/01/24 11:57:27;;;;;;;2.60;2.33;;;5.70;90.70;;;;;;10281218;28;20234;-84
2021/01/24 12:02:28;;;;;;;2.00;1.90;;;5.80;90.60;;;;;;10333227;28;20308;-81
2021/01/24 12:07:30;;;;;;;2.60;2.40;;;5.80;90.60;;;;;;10323382;28;20203;-82
2021/01/24 12:12:32;;;;;;;4.10;2.20;;;5.90;89.90;;;;;;10307035;28;20286;-82
2021/01/24 12:17:34;;;;;;;3.07;2.77;;;5.90;90.00;;;;;;10291656;28;20208;-81
2021/01/24 12:22:36;;;;;;;2.13;2.03;;;5.90;89.10;;;;;;10289430;28;20329;-84
2021/01/24 12:27:38;;;;;;;2.30;1.97;;;5.80;89.60;;;;;;10298000;28;20668;-82
2021/01/24 12:32:40;;;;;;;2.23;2.13;;;5.80;88.20;;;;;;10328351;28;20239;-82
2021/01/24 12:37:42;;;;;;;2.40;2.30;;;5.80;89.00;;;;;;10296579;28;20258;-82
2021/01/24 12:42:44;;;;;;;1.83;1.73;;;5.90;87.00;;;;;;10328036;28;20207;-82
2021/01/24 12:47:46;;;;;;;2.30;2.20;;;5.70;90.00;;;;;;10334426;28;20215;-82
2021/01/24 12:52:48;;;;;;;2.60;2.40;;;5.90;90.30;;;;;;10304884;28;20232;-81
2021/01/24 12:57:50;;;;;;;2.33;2.17;;;5.90;90.20;;;;;;10290915;28;20222;-82
2021/01/24 13:02:52;;;;;;;3.13;2.93;;;5.60;88.80;;;;;;10328974;28;20250;-84
2021/01/24 13:07:54;;;;;;;2.30;2.10;;;5.50;89.00;;;;;;10313484;28;20289;-82
2021/01/24 13:12:56;;;;;;;2.93;2.73;;;5.50;88.60;;;;;;10319973;28;20234;-80
2021/01/24 13:17:58;;;;;;;3.87;2.83;;;5.50;85.30;;;;;;10321670;28;20213;-82
2021/01/24 13:22:59;;;;;;;2.23;2.10;;;5.50;84.90;;;;;;10283936;28;20847;-81
2021/01/24 13:28:02;;;;;;;1.80;1.70;;;5.50;85.70;;;;;;10278887;28;20588;-84
2021/01/24 13:33:07;;;;;;;2.40;2.20;;;5.60;85.20;;;;;;10293268;28;20250;-81
2021/01/24 13:38:08;;;;;;;2.40;2.20;;;5.80;86.30;;;;;;10309052;28;20203;-83
2021/01/24 13:43:11;;;;;;;2.40;2.30;;;6.00;83.00;;;;;;10311024;28;20656;-82
2021/01/24 13:48:13;;;;;;;2.57;2.37;;;6.10;82.60;;;;;;10323335;28;20238;-83
2021/01/24 13:53:39;;;;;;;3.00;2.53;;;6.20;83.60;;;;;;10359790;23;20234;-81
2021/01/24 13:58:45;;;;;;;2.30;2.10;;;6.40;84.50;;;;;;10351633;28;20199;-82
2021/01/24 14:03:46;;;;;;;2.57;2.40;;;6.50;82.70;;;;;;10366304;28;20447;-81
2021/01/24 14:08:48;;;;;;;3.23;2.20;;;6.40;82.40;;;;;;10344518;28;20258;-82
2021/01/24 14:13:50;;;;;;;2.40;2.20;;;6.30;83.00;;;;;;10370889;28;20726;-82
2021/01/24 14:18:53;;;;;;;2.47;2.27;;;6.30;81.10;;;;;;10353669;28;20293;-82
2021/01/24 14:23:54;;;;;;;2.70;2.30;;;6.20;82.20;;;;;;10348240;28;20218;-82
2021/01/24 14:28:57;;;;;;;2.93;2.50;;;6.10;83.30;;;;;;10341614;28;20219;-82
2021/01/24 14:33:59;;;;;;;2.70;2.30;;;6.00;84.00;;;;;;10343372;28;20279;-82
2021/01/24 14:39:00;;;;;;;2.57;2.43;;;5.90;84.80;;;;;;10335553;28;20203;-82
2021/01/24 14:44:03;;;;;;;2.30;2.10;;;5.80;84.10;;;;;;10352499;28;20645;-85
2021/01/24 14:49:05;;;;;;;5.03;2.60;;;5.80;85.00;;;;;;10343047;28;20641;-84
2021/01/24 14:54:07;;;;;;;2.03;1.93;;;5.80;84.70;;;;;;10345471;28;20238;-84
2021/01/24 14:59:10;;;;;;;3.13;2.80;;;5.80;87.30;;;;;;10353425;28;20297;-83
2021/01/24 15:04:12;;;;;;;2.97;2.40;;;5.90;83.70;;;;;;10353929;28;20250;-81
2021/01/24 15:09:14;;;;;;;2.27;2.17;;;6.00;86.60;;;;;;10345062;28;20234;-82
2021/01/24 15:14:20;;;;;;;4.70;2.67;;;6.00;85.30;;;;;;10355931;28;20787;-83
2021/01/24 15:19:22;;;;;;;3.13;2.43;;;5.90;85.70;;;;;;10338524;28;20190;-86
2021/01/24 15:24:23;;;;;;;3.00;2.70;;;5.80;84.20;;;;;;10353627;28;20230;-82
2021/01/24 15:29:26;;;;;;;2.60;2.40;;;5.80;84.30;;;;;;10323801;28;20586;-87
2021/01/24 15:34:27;;;;;;;2.73;2.20;;;5.70;85.50;;;;;;10354017;28;20302;-85
2021/01/24 15:39:29;;;;;;;2.07;1.97;;;5.70;86.30;;;;;;10336278;28;20206;-85
2021/01/24 15:44:32;;;;;;;2.90;2.20;;;5.70;82.40;;;;;;10351053;28;20242;-84
2021/01/24 15:49:34;;;;;;;2.57;2.17;;;5.70;85.90;;;;;;10352912;28;20230;-83
2021/01/24 15:54:36;;;;;;;2.63;2.43;;;5.60;84.60;;;;;;10370453;28;20238;-84
2021/01/24 15:59:39;;;;;;;2.30;2.10;;;5.50;85.50;;;;;;10353287;28;20555;-82
2021/01/24 16:04:40;;;;;;;2.43;2.23;;;5.40;86.60;;;;;;10369573;28;20777;-82
2021/01/24 16:09:42;;;;;;;3.33;2.73;;;5.30;87.60;;;;;;10338545;28;20630;-85
2021/01/24 16:14:45;;;;;;;2.00;1.90;;;5.20;87.80;;;;;;10342091;28;20322;-83
2021/01/24 16:19:47;;;;;;;2.70;2.50;;;5.10;88.50;;;;;;10318540;28;20204;-83
2021/01/24 16:24:49;;;;;;;2.43;2.23;;;5.10;88.90;;;;;;10284464;28;20766;-79
2021/01/24 16:29:52;;;;;;;2.47;2.27;;;5.20;87.90;;;;;;10263494;28;20224;-80
2021/01/24 16:34:55;;;;;;;2.87;2.53;;;5.20;87.70;;;;;;10297099;28;20268;-82
2021/01/24 16:40:00;;;;;;;3.50;2.20;;;5.30;87.40;;;;;;10258796;28;20293;-85
2021/01/24 16:45:04;;;;;;;2.90;2.53;;;5.30;88.40;;;;;;10257618;28;20736;-80
2021/01/24 16:50:11;;;;;;;3.17;2.93;;;5.30;88.50;;;;;;10317052;28;20223;-80
2021/01/24 16:55:14;;;;;;;3.87;2.90;;;5.30;88.50;;;;;;10316543;28;20283;-84
2021/01/24 17:00:18;;;;;;;10.60;6.83;;;5.30;88.90;;;;;;10318957;28;20219;-82
2021/01/24 17:05:20;;;;;;;6.40;5.63;;;5.30;87.60;;;;;;10339207;28;20243;-83
2021/01/24 17:10:22;;;;;;;6.60;4.53;;;5.10;87.20;;;;;;10336617;28;20691;-83
2021/01/24 17:15:29;;;;;;;3.37;3.17;;;5.00;87.40;;;;;;10337745;28;20223;-81
2021/01/24 17:20:31;;;;;;;3.23;3.03;;;4.80;87.20;;;;;;10335930;28;20195;-80
2021/01/24 17:25:36;;;;;;;5.33;4.77;;;4.70;86.60;;;;;;10339985;28;20215;-80
2021/01/24 17:30:42;;;;;;;4.33;3.93;;;4.60;88.70;;;;;;10322638;28;20227;-81
2021/01/24 17:36:24;;;;;;;4.10;3.70;;;4.50;90.00;;;;;;10334081;28;20223;-80
2021/01/24 17:41:43;;;;;;;4.50;4.10;;;4.40;89.90;;;;;;10337315;28;20202;-81
2021/01/24 17:46:46;;;;;;;5.83;4.50;;;4.20;89.20;;;;;;10336937;28;20215;-82
2021/01/24 17:51:47;;;;;;;4.13;3.83;;;4.10;90.10;;;;;;10339253;28;20231;-82
2021/01/24 17:56:49;;;;;;;3.73;3.40;;;4.00;90.00;;;;;;10303805;28;20235;-82
2021/01/24 18:01:52;;;;;;;4.10;3.70;;;3.80;90.60;;;;;;10298494;28;20614;-82
2021/01/24 18:06:53;;;;;;;5.33;4.70;;;3.70;90.90;;;;;;10276475;28;20963;-83
2021/01/24 18:11:55;;;;;;;8.30;5.70;;;3.60;90.50;;;;;;10289557;28;20224;-81
2021/01/24 18:16:58;;;;;;;6.27;5.60;;;3.40;90.70;;;;;;10295105;28;20233;-81
2021/01/24 18:22:00;;;;;;;6.53;5.93;;;3.30;90.90;;;;;;10336972;28;20203;-82
2021/01/24 18:27:01;;;;;;;6.30;5.40;;;3.10;91.40;;;;;;10289957;28;20228;-80
2021/01/24 18:32:05;;;;;;;5.43;4.90;;;3.10;91.60;;;;;;10266002;28;20220;-83
2021/01/24 18:37:07;;;;;;;6.40;5.40;;;3.10;91.40;;;;;;10270431;28;20216;-81
2021/01/24 18:42:12;;;;;;;6.17;5.57;;;3.00;91.80;;;;;;10275644;28;20211;-80
2021/01/24 18:47:15;;;;;;;11.90;8.40;;;3.10;92.20;;;;;;10267051;28;20224;-82
2021/01/24 18:52:25;;;;;;;9.07;8.17;;;3.10;91.40;;;;;;10248032;28;20223;-80
2021/01/24 18:57:28;;;;;;;6.10;5.60;;;3.20;91.30;;;;;;10354321;28;20230;-82
2021/01/24 19:08:25;;;;;;;7.20;6.50;;;3.20;91.70;;;;;;10334059;28;20245;-84
2021/01/24 19:13:26;;;;;;;8.47;6.43;;;3.20;91.60;;;;;;10296068;28;20226;-83
2021/01/24 19:18:29;;;;;;;6.17;5.57;;;3.20;91.70;;;;;;10320606;28;20268;-84
2021/01/24 19:23:31;;;;;;;9.17;8.17;;;3.20;91.80;;;;;;10357636;28;20580;-84
2021/01/24 19:28:33;;;;;;;9.57;8.67;;;3.20;91.80;;;;;;10369419;28;20693;-85
2021/01/24 19:33:35;;;;;;;8.80;7.80;;;3.20;91.90;;;;;;10385548;28;20759;-84
2021/01/24 19:38:37;;;;;;;8.00;7.20;;;3.30;92.10;;;;;;10369814;28;20202;-82
2021/01/24 19:43:39;;;;;;;11.23;7.17;;;3.30;91.80;;;;;;10382744;28;20273;-84
2021/01/24 19:48:41;;;;;;;5.90;5.40;;;3.30;91.90;;;;;;10359376;28;20228;-82
2021/01/24 19:53:43;;;;;;;5.27;4.70;;;3.30;91.30;;;;;;10359472;28;20225;-83
2021/01/24 19:58:45;;;;;;;7.53;5.67;;;3.30;91.20;;;;;;10367056;28;20222;-83
2021/01/24 20:03:47;;;;;;;7.80;7.03;;;3.20;90.60;;;;;;10352518;28;20230;-85
2021/01/24 20:08:49;;;;;;;6.67;6.07;;;3.20;90.70;;;;;;10349774;28;20229;-81
2021/01/24 20:13:51;;;;;;;7.10;6.40;;;3.10;90.60;;;;;;10374860;28;20285;-82
2021/01/24 20:18:53;;;;;;;7.80;5.90;;;3.10;90.30;;;;;;10374672;28;20340;-84
2021/01/24 20:23:58;;;;;;;4.70;4.30;;;3.10;90.40;;;;;;10381854;28;20798;-84
2021/01/24 20:29:01;;;;;;;5.63;5.07;;;3.10;90.20;;;;;;10375893;28;20213;-84
2021/01/24 20:34:04;;;;;;;6.50;5.80;;;3.10;90.40;;;;;;10383038;28;20245;-84
2021/01/24 20:39:05;;;;;;;6.03;5.43;;;3.10;90.40;;;;;;10372742;28;20625;-87
2021/01/24 20:44:07;;;;;;;6.97;6.27;;;3.20;91.60;;;;;;10353877;28;20230;-84
2021/01/24 20:49:10;;;;;;;6.20;5.60;;;3.30;90.80;;;;;;10386348;28;20268;-84
2021/01/24 20:54:13;;;;;;;6.37;5.83;;;3.30;90.20;;;;;;10344181;28;20289;-88
2021/01/24 20:59:14;;;;;;;6.10;5.60;;;3.30;90.50;;;;;;10355905;28;20265;-87
2021/01/24 21:04:17;;;;;;;7.00;6.30;;;3.30;90.60;;;;;;10376658;28;20785;-84
2021/01/24 21:09:19;;;;;;;5.87;5.27;;;3.40;90.60;;;;;;10341350;28;20321;-83
2021/01/24 21:14:20;;;;;;;5.57;5.07;;;3.40;90.40;;;;;;10332842;28;20231;-83
2021/01/24 21:19:23;;;;;;;6.40;5.80;;;3.40;90.00;;;;;;10332627;28;20512;-83
2021/01/24 21:24:26;;;;;;;5.63;5.13;;;3.40;90.10;;;;;;10328479;28;20325;-83
2021/01/24 21:29:28;;;;;;;6.77;6.07;;;3.40;90.40;;;;;;10349044;28;20275;-83
2021/01/24 21:34:33;;;;;;;7.03;5.10;;;3.40;90.60;;;;;;10366714;28;20226;-82
2021/01/24 21:39:35;;;;;;;7.37;6.73;;;3.30;90.80;;;;;;10356000;28;20666;-82
2021/01/24 21:44:37;;;;;;;6.27;5.77;;;3.30;91.20;;;;;;10331730;28;20707;-83
2021/01/24 21:49:39;;;;;;;6.90;6.03;;;3.20;91.20;;;;;;10372104;28;20229;-82
2021/01/24 21:54:41;;;;;;;8.27;6.77;;;3.10;91.50;;;;;;10344739;28;20329;-83
2021/01/24 21:59:43;;;;;;;7.53;5.73;;;3.00;91.60;;;;;;10356475;28;20202;-83
2021/01/24 22:04:45;;;;;;;6.13;5.53;;;3.00;91.70;;;;;;10349138;28;20755;-81
2021/01/24 22:09:47;;;;;;;5.43;4.93;;;3.00;92.00;;;;;;10369126;28;20214;-83
2021/01/24 22:14:49;;;;;;;6.00;5.40;;;3.00;92.30;;;;;;10336823;28;20261;-83
2021/01/24 22:19:51;;;;;;;4.90;4.50;;;3.00;92.00;;;;;;10374766;28;20206;-84
2021/01/24 22:24:53;;;;;;;6.47;5.17;;;2.90;92.00;;;;;;10353316;28;20226;-83
2021/01/24 22:29:54;;;;;;;5.90;4.90;;;2.90;92.80;;;;;;10372524;28;20277;-83
2021/01/24 22:34:57;;;;;;;5.73;5.00;;;2.90;92.50;;;;;;10381054;28;20241;-83
2021/01/24 22:39:58;;;;;;;7.00;6.13;;;3.00;91.70;;;;;;10372740;28;20213;-83
2021/01/24 22:45:00;;;;;;;6.70;5.90;;;3.00;91.50;;;;;;10340139;28;20227;-82
2021/01/24 22:50:06;;;;;;;6.87;6.17;;;3.10;91.60;;;;;;10348558;28;20241;-84
2021/01/24 22:55:08;;;;;;;6.00;5.23;;;3.10;92.20;;;;;;10347345;28;20241;-84
2021/01/24 23:00:22;;;;;;;5.00;4.27;;;3.20;91.80;;;;;;10377323;28;20199;-84
2021/01/24 23:05:24;;;;;;;4.23;3.83;;;3.20;91.20;;;;;;10356853;28;20218;-83
2021/01/24 23:15:49;;;;;;;5.23;4.77;;;3.40;88.50;;;;;;10365422;28;20218;-84
2021/01/24 23:20:53;;;;;;;5.30;4.80;;;3.40;87.70;;;;;;10367890;28;20225;-83
2021/01/24 23:26:06;;;;;;;5.50;4.80;;;3.50;88.10;;;;;;10344283;28;20234;-84
2021/01/24 23:31:08;;;;;;;5.20;4.70;;;3.50;88.90;;;;;;10339552;28;20258;-85
2021/01/24 23:36:10;;;;;;;5.17;4.67;;;3.50;89.70;;;;;;10357639;28;20214;-85
2021/01/24 23:41:12;;;;;;;4.70;4.30;;;3.60;87.80;;;;;;10354440;28;20205;-85
2021/01/24 23:46:14;;;;;;;4.93;4.13;;;3.70;89.80;;;;;;10353022;28;20261;-85
2021/01/24 23:51:17;;;;;;;4.90;4.37;;;3.80;88.10;;;;;;10368415;28;20226;-85
2021/01/24 23:56:22;;;;;;;4.20;3.90;;;3.90;87.60;;;;;;10354103;28;20312;-84
